Time;durP1;ratioP1;P1;durP2;ratioP2;P2;SDS_P1;SDS_P2;PMS_P1;PMS_P2;Temp;Humidity;BMP_temperature;BMP_pressure;BME280_temperature;BME280_humidity;BME280_pressure;Samples;Min_cycle;Max_cycle;Signal;HPM_P1;HPM_P2
2024/01/29 00:01:48;;;;;;;12.37;8.20;;;1.40;70.60;;;;;;6208990;28;20242;-80
2024/01/29 00:04:54;;;;;;;10.80;8.30;;;1.40;70.70;;;;;;6209145;28;20235;-79
2024/01/29 00:07:59;;;;;;;8.10;7.40;;;1.30;70.90;;;;;;6210703;28;20407;-78
2024/01/29 00:11:04;;;;;;;10.67;8.13;;;1.30;70.90;;;;;;6210736;28;20261;-78
2024/01/29 00:14:08;;;;;;;11.70;7.57;;;1.30;70.90;;;;;;6204895;28;20243;-82
2024/01/29 00:17:11;;;;;;;8.53;7.33;;;1.20;70.80;;;;;;6210293;28;20239;-80
2024/01/29 00:20:14;;;;;;;14.70;8.93;;;1.20;71.00;;;;;;6219843;28;20246;-80
2024/01/29 00:23:19;;;;;;;10.93;8.10;;;1.10;71.00;;;;;;6211609;28;20246;-84
2024/01/29 00:26:22;;;;;;;7.97;7.33;;;1.20;71.00;;;;;;6213334;28;20242;-80
2024/01/29 00:29:25;;;;;;;12.20;8.00;;;1.20;70.90;;;;;;6204748;28;20881;-79
2024/01/29 00:32:29;;;;;;;8.77;7.97;;;1.20;70.90;;;;;;6211482;28;20762;-79
2024/01/29 00:35:32;;;;;;;9.00;7.70;;;1.20;70.90;;;;;;6211310;28;20248;-79
2024/01/29 00:38:37;;;;;;;9.23;7.60;;;1.10;71.10;;;;;;6197332;28;20616;-79
2024/01/29 00:41:40;;;;;;;10.90;7.77;;;1.10;71.10;;;;;;6209756;28;20318;-79
2024/01/29 00:44:44;;;;;;;11.40;8.63;;;1.10;71.20;;;;;;6208695;28;20732;-78
2024/01/29 00:47:47;;;;;;;9.57;7.60;;;1.10;71.00;;;;;;6212216;28;20235;-80
2024/01/29 00:50:51;;;;;;;8.47;7.73;;;1.10;71.10;;;;;;6201438;28;20619;-81
2024/01/29 00:53:55;;;;;;;9.77;8.53;;;1.00;71.10;;;;;;6207538;28;20235;-79
2024/01/29 00:56:58;;;;;;;10.30;7.73;;;1.00;71.10;;;;;;6211503;28;20889;-79
2024/01/29 01:00:02;;;;;;;8.00;7.23;;;1.00;71.20;;;;;;6214527;28;20305;-82
2024/01/29 01:03:06;;;;;;;8.40;7.70;;;1.00;71.20;;;;;;6208493;28;20273;-78
2024/01/29 01:06:10;;;;;;;9.60;8.13;;;1.00;71.30;;;;;;6232722;28;20282;-81
2024/01/29 01:09:15;;;;;;;8.60;7.60;;;1.00;71.00;;;;;;6215323;28;20281;-83
2024/01/29 01:12:19;;;;;;;10.90;7.53;;;1.00;70.90;;;;;;6201717;28;20670;-79
2024/01/29 01:15:22;;;;;;;8.27;7.50;;;1.00;70.80;;;;;;6216764;28;20247;-79
2024/01/29 01:18:25;;;;;;;9.27;8.23;;;1.00;71.00;;;;;;6238917;28;20737;-79
2024/01/29 01:21:29;;;;;;;10.23;8.67;;;1.00;71.00;;;;;;6211700;28;20238;-81
2024/01/29 01:24:33;;;;;;;10.77;7.60;;;1.00;71.20;;;;;;6205495;28;20254;-77
2024/01/29 01:27:36;;;;;;;9.63;7.87;;;1.00;71.20;;;;;;6210051;28;20290;-81
2024/01/29 01:30:40;;;;;;;8.83;8.03;;;0.90;71.30;;;;;;6210600;28;20734;-80
2024/01/29 01:33:43;;;;;;;13.13;8.27;;;0.80;71.40;;;;;;6214853;28;20314;-77
2024/01/29 01:36:46;;;;;;;9.33;8.53;;;0.80;71.50;;;;;;6212653;28;20238;-77
2024/01/29 01:39:52;;;;;;;8.60;7.70;;;0.80;71.50;;;;;;6211756;28;20239;-78
2024/01/29 01:42:56;;;;;;;10.97;8.53;;;0.80;71.50;;;;;;6198930;28;20854;-78
2024/01/29 01:46:17;;;;;;;9.80;8.23;;;0.70;71.70;;;;;;6215880;28;20265;-79
2024/01/29 01:49:21;;;;;;;10.50;8.40;;;0.60;71.70;;;;;;6214179;28;20243;-79
2024/01/29 01:52:25;;;;;;;11.70;8.73;;;0.60;72.10;;;;;;6206509;28;20642;-80
2024/01/29 01:55:30;;;;;;;10.77;9.03;;;0.60;72.00;;;;;;6215501;28;20717;-78
2024/01/29 01:58:34;;;;;;;9.00;7.87;;;0.60;72.20;;;;;;6233335;28;20313;-81
2024/01/29 02:01:39;;;;;;;10.17;8.00;;;0.60;72.10;;;;;;6231651;28;20235;-79
2024/01/29 02:04:42;;;;;;;9.93;8.27;;;0.60;72.20;;;;;;6227095;28;20236;-79
2024/01/29 02:07:45;;;;;;;11.73;8.73;;;0.60;72.20;;;;;;6239907;28;20313;-79
2024/01/29 02:10:51;;;;;;;12.43;9.00;;;0.60;72.30;;;;;;6232604;28;20594;-78
2024/01/29 02:13:54;;;;;;;8.97;7.87;;;0.60;72.50;;;;;;6240740;28;20754;-79
2024/01/29 02:16:58;;;;;;;11.60;9.33;;;0.60;72.30;;;;;;6234894;28;20277;-79
2024/01/29 02:20:01;;;;;;;9.50;8.50;;;0.60;72.20;;;;;;6229651;28;20313;-80
2024/01/29 02:23:05;;;;;;;10.20;9.17;;;0.60;72.30;;;;;;6235970;28;20235;-80
2024/01/29 02:26:08;;;;;;;9.57;8.57;;;0.60;72.30;;;;;;6226479;28;20245;-77
2024/01/29 02:29:11;;;;;;;11.00;8.90;;;0.60;72.20;;;;;;6236556;28;20285;-80
2024/01/29 02:32:16;;;;;;;9.53;7.87;;;0.60;72.10;;;;;;6236499;28;20250;-82
2024/01/29 02:35:19;;;;;;;15.00;8.53;;;0.60;72.20;;;;;;6210645;28;20238;-80
2024/01/29 02:38:24;;;;;;;13.00;8.10;;;0.60;72.30;;;;;;6211237;28;20315;-80
2024/01/29 02:41:27;;;;;;;8.93;8.10;;;0.60;72.50;;;;;;6215036;28;20242;-80
2024/01/29 02:44:30;;;;;;;12.47;9.10;;;0.60;72.40;;;;;;6231470;28;20479;-80
2024/01/29 02:47:33;;;;;;;9.53;8.13;;;0.50;72.30;;;;;;6237906;28;20242;-79
2024/01/29 02:50:36;;;;;;;10.93;8.63;;;0.50;72.50;;;;;;6235669;28;20258;-79
2024/01/29 02:53:43;;;;;;;9.43;8.43;;;0.50;72.60;;;;;;6233105;28;20361;-80
2024/01/29 02:56:46;;;;;;;9.93;8.93;;;0.50;72.60;;;;;;6238421;28;20234;-78
2024/01/29 02:59:49;;;;;;;12.50;9.47;;;0.50;72.90;;;;;;6231184;28;20254;-78
2024/01/29 03:02:52;;;;;;;9.57;8.60;;;0.40;72.90;;;;;;6237133;28;20396;-82
2024/01/29 03:05:56;;;;;;;15.83;9.37;;;0.40;73.00;;;;;;6237389;28;20227;-79
2024/01/29 03:09:00;;;;;;;10.97;8.67;;;0.40;73.00;;;;;;6236689;28;20241;-79
2024/01/29 03:12:05;;;;;;;11.40;8.93;;;0.40;73.00;;;;;;6234961;28;20234;-77
2024/01/29 03:15:09;;;;;;;11.77;8.57;;;0.40;73.00;;;;;;6233601;28;20246;-79
2024/01/29 03:18:12;;;;;;;11.47;9.13;;;0.40;73.30;;;;;;6234121;28;20261;-79
2024/01/29 03:21:16;;;;;;;13.50;9.70;;;0.40;73.30;;;;;;6235180;28;20239;-79
2024/01/29 03:24:20;;;;;;;15.43;9.40;;;0.40;73.30;;;;;;6234994;28;20253;-79
2024/01/29 03:27:23;;;;;;;9.77;8.63;;;0.40;73.30;;;;;;6236221;28;20251;-77
2024/01/29 03:30:27;;;;;;;10.20;9.20;;;0.40;73.30;;;;;;6211673;28;20243;-79
2024/01/29 03:33:30;;;;;;;11.33;9.13;;;0.30;73.40;;;;;;6199143;28;20255;-79
2024/01/29 03:36:33;;;;;;;13.27;8.80;;;0.30;73.40;;;;;;6169463;28;20252;-78
2024/01/29 03:39:39;;;;;;;9.20;8.20;;;0.30;73.40;;;;;;6206346;28;20235;-81
2024/01/29 03:42:42;;;;;;;13.80;8.50;;;0.30;73.60;;;;;;6206471;28;20293;-79
2024/01/29 03:45:46;;;;;;;10.70;9.30;;;0.30;73.70;;;;;;6213191;28;20254;-81
2024/01/29 03:48:49;;;;;;;9.73;8.80;;;0.30;73.50;;;;;;6209056;28;20337;-81
2024/01/29 03:51:52;;;;;;;9.67;8.77;;;0.30;73.50;;;;;;6206514;28;20250;-80
2024/01/29 03:54:57;;;;;;;10.27;9.23;;;0.20;73.60;;;;;;6211150;28;20753;-79
2024/01/29 04:01:12;;;;;;;13.67;8.60;;;0.30;73.70;;;;;;6209118;28;20239;-80
2024/01/29 04:04:16;;;;;;;11.50;9.07;;;0.20;73.90;;;;;;6211415;28;20250;-81
2024/01/29 04:07:19;;;;;;;11.07;9.13;;;0.20;73.90;;;;;;6211292;28;20242;-78
2024/01/29 04:10:24;;;;;;;9.60;8.47;;;0.10;74.00;;;;;;6210402;28;20266;-78
2024/01/29 04:13:29;;;;;;;14.90;9.40;;;0.00;74.00;;;;;;6208644;28;20250;-79
2024/01/29 04:16:32;;;;;;;12.97;9.67;;;0.00;74.30;;;;;;6208211;28;20243;-78
2024/01/29 04:19:35;;;;;;;12.90;9.63;;;0.00;74.50;;;;;;6212219;28;20279;-78
2024/01/29 04:22:39;;;;;;;16.90;9.23;;;0.00;74.70;;;;;;6195099;28;20259;-79
2024/01/29 04:25:43;;;;;;;13.57;9.17;;;0.00;75.00;;;;;;6234724;28;20940;-78
2024/01/29 04:28:47;;;;;;;12.27;8.80;;;0.00;75.00;;;;;;6233668;28;20304;-81
2024/01/29 04:31:50;;;;;;;13.27;9.40;;;0.00;75.00;;;;;;6209852;28;20226;-79
2024/01/29 04:34:53;;;;;;;13.93;10.00;;;0.00;74.90;;;;;;6234202;28;20786;-79
2024/01/29 04:37:57;;;;;;;10.73;9.43;;;0.00;75.00;;;;;;6236870;28;20261;-77
2024/01/29 04:41:01;;;;;;;10.70;9.17;;;0.00;75.10;;;;;;6237676;28;20300;-79
2024/01/29 04:44:04;;;;;;;14.50;10.37;;;0.00;75.00;;;;;;6237456;28;20325;-79
2024/01/29 04:47:07;;;;;;;10.33;9.30;;;0.00;75.10;;;;;;6235798;28;20820;-79
2024/01/29 04:50:11;;;;;;;13.20;9.13;;;0.00;75.10;;;;;;6236849;28;20319;-80
2024/01/29 04:53:14;;;;;;;11.53;9.73;;;0.00;75.20;;;;;;6225788;28;20247;-79
2024/01/29 04:56:18;;;;;;;14.20;10.07;;;0.00;75.20;;;;;;6235696;28;20254;-79
2024/01/29 04:59:22;;;;;;;10.03;8.90;;;0.00;75.40;;;;;;6234048;28;20238;-82
2024/01/29 05:02:25;;;;;;;12.20;9.80;;;0.00;75.20;;;;;;6236362;28;20325;-80
2024/01/29 05:05:28;;;;;;;17.10;9.77;;;0.00;75.30;;;;;;6233849;28;20311;-82
2024/01/29 05:08:35;;;;;;;12.07;9.73;;;-0.10;75.70;;;;;;6234494;28;20234;-78
2024/01/29 05:11:39;;;;;;;12.43;8.90;;;-0.10;75.50;;;;;;6239849;28;20234;-80
2024/01/29 05:14:43;;;;;;;12.67;9.60;;;-0.10;75.50;;;;;;6226529;28;20770;-78
2024/01/29 05:17:46;;;;;;;10.53;9.43;;;0.00;75.50;;;;;;6230410;28;20310;-80
2024/01/29 05:20:49;;;;;;;11.87;9.17;;;0.00;75.50;;;;;;6231314;28;20231;-80
2024/01/29 05:23:52;;;;;;;13.57;9.60;;;0.00;75.60;;;;;;6237360;28;20241;-80
2024/01/29 05:26:57;;;;;;;13.27;9.93;;;-0.10;75.70;;;;;;6240119;28;20238;-80
2024/01/29 05:30:00;;;;;;;14.57;10.77;;;-0.10;75.90;;;;;;6238485;28;20806;-78
2024/01/29 05:33:03;;;;;;;13.00;9.77;;;-0.10;75.70;;;;;;6232887;28;20266;-78
2024/01/29 05:36:27;;;;;;;9.90;9.00;;;-0.10;75.80;;;;;;6227221;28;20305;-81
2024/01/29 05:39:30;;;;;;;14.33;10.23;;;0.00;75.60;;;;;;6235097;28;20231;-78
2024/01/29 05:42:34;;;;;;;14.83;10.47;;;-0.10;75.50;;;;;;6231048;28;20234;-81
2024/01/29 05:45:38;;;;;;;14.20;10.10;;;-0.10;75.70;;;;;;6226865;28;20591;-80
2024/01/29 05:48:41;;;;;;;12.70;9.73;;;0.00;75.70;;;;;;6231126;28;20239;-80
2024/01/29 05:51:47;;;;;;;13.40;10.63;;;0.00;75.70;;;;;;6229726;28;20794;-81
2024/01/29 05:54:50;;;;;;;12.03;9.20;;;-0.10;75.70;;;;;;6230561;28;20744;-81
2024/01/29 05:57:54;;;;;;;11.43;9.63;;;-0.10;75.80;;;;;;6224769;28;20234;-80
2024/01/29 06:00:59;;;;;;;15.07;9.77;;;-0.10;76.00;;;;;;6218989;28;20308;-80
2024/01/29 06:04:02;;;;;;;19.07;11.17;;;-0.10;75.80;;;;;;6208397;28;20246;-79
2024/01/29 06:07:06;;;;;;;11.77;10.03;;;-0.10;76.00;;;;;;6232780;28;20257;-77
2024/01/29 06:10:11;;;;;;;12.27;9.73;;;-0.10;76.00;;;;;;6228581;28;20266;-80
2024/01/29 06:13:15;;;;;;;12.13;9.30;;;-0.10;75.90;;;;;;6230819;28;21353;-79
2024/01/29 06:16:22;;;;;;;13.63;9.90;;;0.00;75.80;;;;;;6228225;28;20376;-78
2024/01/29 06:19:26;;;;;;;13.60;9.83;;;0.00;75.90;;;;;;6228608;28;20253;-81
2024/01/29 06:22:30;;;;;;;11.40;10.13;;;0.00;75.80;;;;;;6229465;28;20255;-80
2024/01/29 06:25:33;;;;;;;15.03;10.20;;;0.00;75.70;;;;;;6229691;28;20365;-77
2024/01/29 06:28:37;;;;;;;14.93;11.00;;;0.00;75.70;;;;;;6229143;28;20284;-78
2024/01/29 06:31:41;;;;;;;14.40;10.23;;;0.00;75.50;;;;;;6229669;28;20302;-77
2024/01/29 06:34:44;;;;;;;11.27;9.10;;;0.00;75.70;;;;;;6220523;28;20272;-77
2024/01/29 06:37:47;;;;;;;13.47;9.73;;;0.00;75.50;;;;;;6224245;28;20255;-77
2024/01/29 06:40:51;;;;;;;13.13;10.23;;;0.00;75.90;;;;;;6233512;28;20623;-78
2024/01/29 06:43:55;;;;;;;11.07;9.87;;;0.00;75.70;;;;;;6223354;28;20328;-76
2024/01/29 06:46:58;;;;;;;11.63;9.70;;;0.00;75.60;;;;;;6227523;28;20266;-75
2024/01/29 06:50:02;;;;;;;14.00;9.50;;;0.00;75.60;;;;;;6212730;28;20839;-80
2024/01/29 06:53:05;;;;;;;13.70;9.80;;;0.00;75.50;;;;;;6212156;28;20783;-79
2024/01/29 06:56:08;;;;;;;12.30;9.97;;;0.00;75.60;;;;;;6219835;28;20242;-79
2024/01/29 06:59:13;;;;;;;11.77;10.57;;;0.00;75.40;;;;;;6225461;28;20282;-79
2024/01/29 07:02:16;;;;;;;10.63;9.50;;;0.00;75.50;;;;;;6230289;28;20239;-80
2024/01/29 07:05:20;;;;;;;13.03;9.43;;;0.10;75.10;;;;;;6228476;28;20921;-80
2024/01/29 07:08:23;;;;;;;13.87;9.47;;;0.10;75.10;;;;;;6231615;28;20235;-79
2024/01/29 07:11:27;;;;;;;12.80;10.50;;;0.20;74.80;;;;;;6233006;28;20243;-80
2024/01/29 07:14:31;;;;;;;16.93;10.73;;;0.20;74.60;;;;;;6234633;28;20878;-78
2024/01/29 07:17:34;;;;;;;12.07;10.40;;;0.30;74.50;;;;;;6223574;28;20268;-79
2024/01/29 07:20:41;;;;;;;15.03;10.33;;;0.30;74.30;;;;;;6223812;28;20254;-79
2024/01/29 07:23:44;;;;;;;12.63;9.60;;;0.30;74.30;;;;;;6226329;28;20267;-78
2024/01/29 07:26:47;;;;;;;12.10;9.97;;;0.30;74.00;;;;;;6225186;28;20334;-76
2024/01/29 07:29:51;;;;;;;12.17;9.93;;;0.40;74.10;;;;;;6224769;28;20268;-78
2024/01/29 07:32:54;;;;;;;14.97;9.57;;;0.50;74.00;;;;;;6223199;28;20326;-77
2024/01/29 07:35:59;;;;;;;13.17;9.77;;;0.60;73.70;;;;;;6224618;28;20239;-76
2024/01/29 07:39:02;;;;;;;11.97;10.23;;;0.60;73.60;;;;;;6227446;28;20269;-78
2024/01/29 07:42:06;;;;;;;10.93;10.03;;;0.70;73.40;;;;;;6221581;28;20328;-78
2024/01/29 07:45:11;;;;;;;11.27;9.73;;;0.80;73.00;;;;;;6227387;28;20302;-78
2024/01/29 07:48:15;;;;;;;13.60;9.73;;;0.80;72.80;;;;;;6227428;28;20981;-78
2024/01/29 07:51:18;;;;;;;16.63;11.23;;;0.90;72.60;;;;;;6224365;28;20326;-79
2024/01/29 07:54:21;;;;;;;13.87;9.87;;;1.00;72.10;;;;;;6225428;28;20987;-77
2024/01/29 07:57:25;;;;;;;13.07;9.33;;;1.00;71.90;;;;;;6228254;28;20250;-77
2024/01/29 08:00:29;;;;;;;14.27;9.73;;;1.10;71.00;;;;;;6225855;28;20242;-76
2024/01/29 08:03:33;;;;;;;9.73;8.50;;;1.30;70.80;;;;;;6226592;28;20251;-79
2024/01/29 08:06:36;;;;;;;11.57;8.73;;;1.50;69.60;;;;;;6225491;28;20235;-77
2024/01/29 08:09:39;;;;;;;10.13;8.10;;;1.70;68.50;;;;;;6228213;28;20309;-78
2024/01/29 08:12:42;;;;;;;17.27;8.67;;;1.80;68.40;;;;;;6228830;28;20334;-76
2024/01/29 08:15:47;;;;;;;12.67;9.17;;;1.90;67.40;;;;;;6227644;28;20242;-78
2024/01/29 08:18:50;;;;;;;9.50;8.37;;;2.10;67.20;;;;;;6220544;28;20262;-78
2024/01/29 08:21:54;;;;;;;10.90;8.73;;;2.30;66.40;;;;;;6227755;28;20242;-78
2024/01/29 08:24:57;;;;;;;8.63;7.90;;;2.40;65.90;;;;;;6230279;28;20250;-80
2024/01/29 08:28:00;;;;;;;12.33;8.87;;;2.50;65.70;;;;;;6227043;28;20230;-78
2024/01/29 08:31:06;;;;;;;10.57;8.33;;;2.60;65.70;;;;;;6227242;28;20238;-76
2024/01/29 08:34:09;;;;;;;12.57;8.57;;;2.70;65.50;;;;;;6228071;28;20846;-77
2024/01/29 08:37:13;;;;;;;9.80;8.87;;;2.80;65.10;;;;;;6225297;28;20238;-79
2024/01/29 08:40:16;;;;;;;13.17;9.60;;;3.00;64.60;;;;;;6228109;28;20239;-76
2024/01/29 08:43:20;;;;;;;10.10;9.10;;;3.20;63.80;;;;;;6229053;28;20257;-78
2024/01/29 08:46:24;;;;;;;11.37;9.00;;;3.30;63.00;;;;;;6219316;28;20264;-77
2024/01/29 08:49:29;;;;;;;9.80;8.80;;;3.60;61.90;;;;;;6228116;28;20242;-79
2024/01/29 08:52:32;;;;;;;10.50;9.10;;;3.70;61.70;;;;;;6227576;28;20253;-76
2024/01/29 08:55:35;;;;;;;11.00;9.77;;;3.80;61.50;;;;;;6230113;28;20258;-76
2024/01/29 08:58:39;;;;;;;12.43;9.17;;;3.90;61.00;;;;;;6227189;28;20757;-77
2024/01/29 09:01:43;;;;;;;11.13;8.83;;;4.00;60.50;;;;;;6225923;28;20304;-76
2024/01/29 09:04:47;;;;;;;11.00;9.13;;;4.10;60.30;;;;;;6229571;28;20245;-76
2024/01/29 09:07:50;;;;;;;13.73;9.53;;;4.30;59.50;;;;;;6227546;28;20234;-79
2024/01/29 09:10:53;;;;;;;12.27;8.90;;;4.40;59.40;;;;;;6227342;28;20235;-75
2024/01/29 09:13:58;;;;;;;9.97;8.97;;;4.50;59.10;;;;;;6227696;28;20239;-76
2024/01/29 09:17:02;;;;;;;10.10;8.80;;;4.60;58.70;;;;;;6223942;28;21330;-74
2024/01/29 09:20:07;;;;;;;11.63;10.33;;;4.70;58.30;;;;;;6219032;28;20274;-78
2024/01/29 09:23:10;;;;;;;9.63;8.77;;;4.60;58.60;;;;;;6239632;28;20242;-77
2024/01/29 09:26:13;;;;;;;13.40;9.03;;;4.50;58.90;;;;;;6231157;28;20242;-76
2024/01/29 09:29:17;;;;;;;10.77;9.70;;;4.70;59.20;;;;;;6231275;28;20940;-76
2024/01/29 09:32:22;;;;;;;9.47;8.13;;;4.80;58.40;;;;;;6230513;28;21445;-76
2024/01/29 09:35:25;;;;;;;9.07;8.27;;;5.00;57.70;;;;;;6232282;28;21204;-75
2024/01/29 09:38:28;;;;;;;9.73;7.67;;;5.00;57.40;;;;;;6230700;28;20307;-77
2024/01/29 09:41:34;;;;;;;11.67;8.57;;;5.10;57.00;;;;;;6231205;28;20257;-77
2024/01/29 09:44:39;;;;;;;8.77;7.90;;;5.20;57.00;;;;;;6220594;28;20949;-79
2024/01/29 09:47:44;;;;;;;10.57;9.47;;;5.20;57.00;;;;;;6229584;28;20385;-76
2024/01/29 09:50:51;;;;;;;10.37;9.27;;;5.20;57.30;;;;;;6232023;28;20866;-77
2024/01/29 09:53:56;;;;;;;9.07;8.33;;;5.10;57.30;;;;;;6238455;28;20254;-77
2024/01/29 09:57:02;;;;;;;9.93;9.00;;;5.30;57.40;;;;;;6243769;28;20238;-76
2024/01/29 10:00:06;;;;;;;9.53;7.90;;;5.50;57.40;;;;;;6243145;28;20238;-74
2024/01/29 10:03:22;;;;;;;15.83;9.67;;;5.70;56.90;;;;;;6243945;28;20270;-78
2024/01/29 10:06:25;;;;;;;9.07;8.17;;;5.80;56.20;;;;;;6231306;28;20249;-78
2024/01/29 10:09:31;;;;;;;9.73;8.80;;;6.00;55.70;;;;;;6243433;28;20638;-77
2024/01/29 10:12:35;;;;;;;12.47;8.40;;;5.90;56.00;;;;;;6243353;28;20249;-77
2024/01/29 10:15:38;;;;;;;9.67;8.47;;;6.00;56.10;;;;;;6221809;28;20322;-76
2024/01/29 10:18:42;;;;;;;11.20;8.57;;;6.00;56.10;;;;;;6196401;28;20242;-77
2024/01/29 10:21:47;;;;;;;8.97;8.17;;;6.10;55.60;;;;;;6231986;28;20246;-75
2024/01/29 10:25:00;;;;;;;9.77;7.77;;;6.30;55.70;;;;;;6231483;28;20251;-76
2024/01/29 10:28:10;;;;;;;8.50;7.70;;;6.60;54.70;;;;;;6227327;28;20288;-77
2024/01/29 10:31:16;;;;;;;11.03;9.13;;;6.70;54.70;;;;;;6230413;28;20299;-78
2024/01/29 10:34:23;;;;;;;8.40;7.70;;;6.80;54.50;;;;;;6232544;28;20280;-78
2024/01/29 10:37:27;;;;;;;9.07;7.67;;;6.90;54.60;;;;;;6225712;28;20239;-76
2024/01/29 10:40:31;;;;;;;8.60;7.77;;;7.00;54.30;;;;;;6228356;28;20238;-75
2024/01/29 10:43:38;;;;;;;8.30;7.37;;;7.20;53.90;;;;;;6230484;28;20227;-76
2024/01/29 10:46:43;;;;;;;11.00;8.30;;;7.40;53.60;;;;;;6231371;28;20373;-77
2024/01/29 10:49:50;;;;;;;11.97;8.97;;;7.50;53.00;;;;;;6226830;28;20320;-78
2024/01/29 10:52:55;;;;;;;8.57;7.67;;;7.40;52.90;;;;;;6228129;28;20246;-78
2024/01/29 10:56:03;;;;;;;7.57;6.97;;;7.70;52.70;;;;;;6228124;28;20260;-76
2024/01/29 11:03:06;;;;;;;7.90;7.10;;;8.00;51.60;;;;;;6226462;28;20234;-75
2024/01/29 11:06:25;;;;;;;7.30;6.60;;;8.00;51.20;;;;;;6231122;28;20242;-77
2024/01/29 11:13:29;;;;;;;7.20;6.53;;;8.10;50.50;;;;;;6238651;28;20238;-78
2024/01/29 11:16:32;;;;;;;6.93;6.33;;;8.30;50.10;;;;;;6230278;28;20727;-77
2024/01/29 11:19:36;;;;;;;7.40;6.13;;;8.30;49.70;;;;;;6206321;28;20239;-76
2024/01/29 11:22:41;;;;;;;6.37;5.87;;;8.30;50.00;;;;;;6204495;28;20306;-77
2024/01/29 11:25:48;;;;;;;7.17;6.43;;;8.40;50.00;;;;;;6207015;28;20673;-76
2024/01/29 11:28:56;;;;;;;7.40;6.80;;;8.60;49.50;;;;;;6204477;28;20762;-76
2024/01/29 11:40:45;;;;;;;8.23;6.60;;;8.90;48.50;;;;;;6199614;28;21114;-76
2024/01/29 11:43:50;;;;;;;6.23;5.73;;;9.20;48.40;;;;;;6229263;28;20234;-77
2024/01/29 11:46:55;;;;;;;6.00;5.50;;;9.30;48.10;;;;;;6218280;28;20249;-77
2024/01/29 11:49:59;;;;;;;6.07;5.60;;;9.30;48.10;;;;;;6228986;28;20321;-76
2024/01/29 11:53:02;;;;;;;5.70;5.30;;;9.00;48.10;;;;;;6228776;28;20254;-78
2024/01/29 11:57:04;;;;;;;5.80;5.30;;;9.30;48.30;;;;;;6231785;28;20234;-77
2024/01/29 12:00:10;;;;;;;8.77;5.27;;;9.30;47.50;;;;;;6221750;28;20231;-79
2024/01/29 12:03:15;;;;;;;5.40;5.00;;;9.40;48.20;;;;;;6215292;28;20378;-76
2024/01/29 12:06:18;;;;;;;5.63;5.00;;;9.40;47.50;;;;;;6225970;28;20239;-75
2024/01/29 12:09:21;;;;;;;7.47;5.17;;;9.40;46.90;;;;;;6227271;28;20235;-78
2024/01/29 12:12:25;;;;;;;5.03;4.83;;;9.50;46.50;;;;;;6229828;28;20381;-79
2024/01/29 12:15:29;;;;;;;5.30;4.87;;;9.50;47.10;;;;;;6227118;28;20239;-76
2024/01/29 12:18:33;;;;;;;5.80;5.37;;;9.50;46.30;;;;;;6228272;28;20619;-79
2024/01/29 12:21:36;;;;;;;6.10;5.70;;;9.50;47.20;;;;;;6230422;28;20227;-76
2024/01/29 12:24:40;;;;;;;5.63;5.23;;;9.50;47.20;;;;;;6227399;28;20235;-76
2024/01/29 12:27:43;;;;;;;5.70;5.20;;;9.40;47.60;;;;;;6227678;28;20599;-76
2024/01/29 12:30:55;;;;;;;5.50;5.10;;;9.30;47.10;;;;;;6229382;28;20330;-76
2024/01/29 12:34:01;;;;;;;5.73;5.43;;;9.30;47.50;;;;;;6222500;28;20258;-77
2024/01/29 12:37:04;;;;;;;6.93;5.13;;;9.20;47.50;;;;;;6225065;28;20717;-79
2024/01/29 12:40:16;;;;;;;5.27;4.77;;;9.10;47.70;;;;;;6226687;28;20929;-81
2024/01/29 12:43:27;;;;;;;5.50;5.00;;;9.10;47.70;;;;;;6229026;28;20235;-77
2024/01/29 12:46:31;;;;;;;5.00;4.80;;;9.00;47.40;;;;;;6226892;28;20243;-81
2024/01/29 12:49:34;;;;;;;6.47;5.87;;;9.20;47.50;;;;;;6229609;28;20231;-80
2024/01/29 12:52:37;;;;;;;5.20;4.83;;;9.20;47.50;;;;;;6228165;28;20304;-81
2024/01/29 12:55:42;;;;;;;5.70;5.20;;;9.20;47.50;;;;;;6231530;28;20250;-80
2024/01/29 12:58:45;;;;;;;5.17;4.87;;;9.20;47.50;;;;;;6223162;28;20230;-78
2024/01/29 13:01:50;;;;;;;5.37;4.87;;;9.10;47.60;;;;;;6231539;28;20328;-77
2024/01/29 13:04:53;;;;;;;6.43;5.20;;;9.20;47.60;;;;;;6231021;28;20238;-79
2024/01/29 13:07:56;;;;;;;5.43;4.87;;;9.20;47.40;;;;;;6231636;28;20295;-77
2024/01/29 13:11:00;;;;;;;6.17;5.60;;;9.20;47.40;;;;;;6231489;28;20373;-78
2024/01/29 13:14:03;;;;;;;5.47;5.03;;;9.20;47.50;;;;;;6235661;28;20382;-78
2024/01/29 13:17:08;;;;;;;6.50;5.67;;;9.20;47.90;;;;;;6235325;28;20240;-80
2024/01/29 13:20:13;;;;;;;5.60;5.20;;;9.30;47.80;;;;;;6236977;28;20246;-78
2024/01/29 13:23:17;;;;;;;5.63;5.23;;;9.30;47.70;;;;;;6233081;28;20352;-76
2024/01/29 13:26:21;;;;;;;5.97;5.57;;;9.30;47.30;;;;;;6231603;28;20273;-76
2024/01/29 13:29:24;;;;;;;8.87;5.90;;;9.30;47.60;;;;;;6234059;28;20759;-81
2024/01/29 13:32:28;;;;;;;7.73;6.37;;;9.20;48.10;;;;;;6232340;28;20261;-79
2024/01/29 13:35:31;;;;;;;6.07;5.67;;;9.30;47.80;;;;;;6230800;28;20295;-81
2024/01/29 13:38:35;;;;;;;7.03;6.40;;;9.40;47.60;;;;;;6229325;28;20308;-80
2024/01/29 13:41:38;;;;;;;6.37;5.77;;;9.30;47.50;;;;;;6232489;28;20246;-80
2024/01/29 13:44:41;;;;;;;7.40;6.53;;;9.30;48.00;;;;;;6232408;28;20289;-79
2024/01/29 13:47:46;;;;;;;6.63;6.10;;;9.20;47.90;;;;;;6234682;28;20257;-79
2024/01/29 13:50:49;;;;;;;6.40;5.80;;;9.20;47.70;;;;;;6234122;28;20235;-77
2024/01/29 13:53:53;;;;;;;6.57;6.00;;;9.20;48.30;;;;;;6231711;28;20243;-80
2024/01/29 13:56:56;;;;;;;6.23;5.73;;;9.20;48.60;;;;;;6232038;28;20857;-78
2024/01/29 14:00:00;;;;;;;5.97;5.67;;;9.20;48.60;;;;;;6232792;28;20246;-81
2024/01/29 14:03:05;;;;;;;6.60;6.10;;;9.30;48.40;;;;;;6232824;28;20648;-80
2024/01/29 14:06:08;;;;;;;5.70;5.17;;;9.30;48.30;;;;;;6231435;28;20234;-78
2024/01/29 14:09:11;;;;;;;5.70;5.30;;;9.30;48.30;;;;;;6231399;28;20230;-80
2024/01/29 14:12:15;;;;;;;5.37;5.07;;;9.20;48.10;;;;;;6223506;28;20246;-81
2024/01/29 14:15:18;;;;;;;5.67;5.37;;;9.20;48.30;;;;;;6233196;28;21025;-81
2024/01/29 14:18:23;;;;;;;6.63;5.90;;;9.20;48.80;;;;;;6232800;28;20613;-77
2024/01/29 14:21:26;;;;;;;5.73;5.33;;;9.10;48.80;;;;;;6231901;28;20284;-78
2024/01/29 14:24:29;;;;;;;6.20;5.60;;;9.30;48.50;;;;;;6231606;28;20273;-76
2024/01/29 14:27:34;;;;;;;7.63;6.93;;;9.40;48.30;;;;;;6232242;28;20235;-78
2024/01/29 14:30:37;;;;;;;6.93;6.33;;;9.40;48.20;;;;;;6230080;28;20234;-78
2024/01/29 14:33:42;;;;;;;6.83;6.23;;;9.20;48.30;;;;;;6228337;28;20329;-77
2024/01/29 14:36:45;;;;;;;6.33;5.93;;;9.30;48.50;;;;;;6230582;28;20274;-79
2024/01/29 14:39:48;;;;;;;6.20;5.63;;;9.20;48.90;;;;;;6227125;28;20986;-78
2024/01/29 14:42:52;;;;;;;6.37;5.83;;;9.00;48.60;;;;;;6227995;28;20297;-79
2024/01/29 14:45:55;;;;;;;6.63;6.00;;;9.00;49.10;;;;;;6221395;28;20703;-78
2024/01/29 14:48:59;;;;;;;6.30;5.73;;;9.00;49.20;;;;;;6227928;28;20242;-79
2024/01/29 14:52:04;;;;;;;7.00;6.40;;;8.90;49.20;;;;;;6218161;28;20235;-79
2024/01/29 14:55:09;;;;;;;7.63;6.47;;;8.80;49.40;;;;;;6226860;28;21054;-81
2024/01/29 14:58:12;;;;;;;9.40;8.40;;;8.70;49.70;;;;;;6224878;28;20231;-80
2024/01/29 15:01:16;;;;;;;7.23;6.53;;;8.60;50.00;;;;;;6232421;28;20246;-79
2024/01/29 15:04:21;;;;;;;6.23;5.80;;;8.60;50.10;;;;;;6236235;28;20746;-78
2024/01/29 15:07:24;;;;;;;6.87;6.33;;;8.60;50.00;;;;;;6218809;28;20243;-76
2024/01/29 15:10:27;;;;;;;7.10;6.60;;;8.60;50.10;;;;;;6220919;28;20377;-78
2024/01/29 15:13:31;;;;;;;7.37;6.77;;;8.50;50.30;;;;;;6216052;28;20231;-78
2024/01/29 15:16:34;;;;;;;7.77;7.17;;;8.50;50.40;;;;;;6225807;28;20254;-81
2024/01/29 15:19:38;;;;;;;8.13;7.40;;;8.40;50.60;;;;;;6215780;28;20848;-80
2024/01/29 15:22:41;;;;;;;10.93;7.97;;;8.30;50.90;;;;;;6216425;28;20254;-77
2024/01/29 15:25:44;;;;;;;9.33;7.40;;;8.30;50.90;;;;;;6216683;28;20265;-78
2024/01/29 15:28:48;;;;;;;12.90;9.37;;;8.20;51.00;;;;;;6217282;28;20234;-78
2024/01/29 15:31:51;;;;;;;10.00;8.73;;;8.10;51.30;;;;;;6215707;28;20292;-78
2024/01/29 15:34:56;;;;;;;9.77;8.63;;;8.00;51.50;;;;;;6217615;28;20253;-80
2024/01/29 15:37:59;;;;;;;7.83;7.23;;;7.90;51.90;;;;;;6211422;28;20245;-78
2024/01/29 15:41:03;;;;;;;8.03;6.97;;;7.80;51.90;;;;;;6217809;28;20235;-79
2024/01/29 15:44:06;;;;;;;7.10;6.60;;;7.80;52.10;;;;;;6216121;28;20293;-77
2024/01/29 15:47:10;;;;;;;8.60;7.80;;;7.80;52.20;;;;;;6214857;28;20250;-76
2024/01/29 15:50:15;;;;;;;7.63;7.07;;;7.80;52.00;;;;;;6216464;28;20239;-76
2024/01/29 15:53:18;;;;;;;7.30;6.73;;;7.80;52.20;;;;;;6215168;28;20255;-77
2024/01/29 15:56:21;;;;;;;7.60;6.83;;;7.80;51.90;;;;;;6219115;28;20243;-79
2024/01/29 15:59:24;;;;;;;7.97;7.37;;;7.80;52.10;;;;;;6217905;28;20238;-78
2024/01/29 16:02:27;;;;;;;7.60;6.90;;;7.80;52.10;;;;;;6215886;28;20403;-78
2024/01/29 16:05:32;;;;;;;7.03;6.47;;;7.70;52.40;;;;;;6215791;28;20338;-79
2024/01/29 16:08:37;;;;;;;9.07;7.47;;;7.50;52.50;;;;;;6228155;28;20223;-79
2024/01/29 16:11:40;;;;;;;7.87;7.27;;;7.50;52.80;;;;;;6229570;28;20939;-77
2024/01/29 16:14:44;;;;;;;7.50;7.00;;;7.40;53.00;;;;;;6227217;28;20400;-78
2024/01/29 16:17:47;;;;;;;8.47;7.60;;;7.30;53.00;;;;;;6229139;28;20258;-79
2024/01/29 16:20:51;;;;;;;8.43;7.60;;;7.40;53.00;;;;;;6217355;28;20235;-79
2024/01/29 16:23:54;;;;;;;8.47;7.83;;;7.30;52.80;;;;;;6224633;28;20704;-79